Time;durP1;ratioP1;P1;durP2;ratioP2;P2;SDS_P1;SDS_P2;PMS_P1;PMS_P2;Temp;Humidity;BMP_temperature;BMP_pressure;BME280_temperature;BME280_humidity;BME280_pressure;Samples;Min_cycle;Max_cycle;Signal;HPM_P1;HPM_P2
2021/10/12 00:01:00;;;;;;;22.67;12.10;;;10.50;80.80;;;;;;5116198;27;20031;-74
2021/10/12 00:03:25;;;;;;;16.50;11.10;;;10.40;80.60;;;;;;5116197;27;20027;-75
2021/10/12 00:05:51;;;;;;;18.55;11.43;;;10.40;80.80;;;;;;5115922;27;20027;-74
2021/10/12 00:08:17;;;;;;;16.67;11.02;;;10.30;80.90;;;;;;5115973;28;20050;-74
2021/10/12 00:10:42;;;;;;;15.40;10.65;;;10.40;81.10;;;;;;5115859;28;20074;-74
2021/10/12 00:13:09;;;;;;;21.63;10.88;;;10.40;81.20;;;;;;5115975;27;20023;-74
2021/10/12 00:15:34;;;;;;;18.52;10.57;;;10.40;81.20;;;;;;5115924;27;20027;-74
2021/10/12 00:18:00;;;;;;;19.05;10.55;;;10.40;81.00;;;;;;5115729;27;20064;-74
2021/10/12 00:20:25;;;;;;;19.45;10.95;;;10.40;80.80;;;;;;5115749;28;20506;-74
2021/10/12 00:22:51;;;;;;;15.73;10.35;;;10.40;81.70;;;;;;5115771;27;20480;-74
2021/10/12 00:25:17;;;;;;;14.20;9.82;;;10.40;81.10;;;;;;5115731;27;20028;-73
2021/10/12 00:27:42;;;;;;;17.45;10.32;;;10.40;81.20;;;;;;5115813;28;20027;-74
2021/10/12 00:30:08;;;;;;;15.02;9.73;;;10.40;81.00;;;;;;5115376;27;20043;-74
2021/10/12 00:32:34;;;;;;;12.43;8.98;;;10.40;81.00;;;;;;5115687;28;20039;-74
2021/10/12 00:35:00;;;;;;;14.05;9.32;;;10.40;80.90;;;;;;5114308;28;20114;-74
2021/10/12 00:37:25;;;;;;;18.00;10.00;;;10.30;81.00;;;;;;5115440;27;20099;-74
2021/10/12 00:39:51;;;;;;;22.17;12.00;;;10.40;81.10;;;;;;5115342;27;20024;-74
2021/10/12 00:42:17;;;;;;;18.63;11.68;;;10.40;81.30;;;;;;5115469;28;20545;-74
2021/10/12 00:44:44;;;;;;;15.02;9.95;;;10.30;81.20;;;;;;5113952;28;20027;-74
2021/10/12 00:47:10;;;;;;;18.73;11.23;;;10.30;82.20;;;;;;5115305;28;20467;-74
2021/10/12 00:49:35;;;;;;;13.98;9.23;;;10.30;81.40;;;;;;5115082;28;20449;-74
2021/10/12 00:52:01;;;;;;;17.08;9.38;;;10.30;81.60;;;;;;5115178;28;20047;-74
2021/10/12 00:54:27;;;;;;;14.65;9.50;;;10.30;81.60;;;;;;5115157;28;20024;-74
2021/10/12 00:56:52;;;;;;;12.93;8.50;;;10.30;81.80;;;;;;5114932;28;20062;-74
2021/10/12 00:59:18;;;;;;;14.35;8.85;;;10.20;81.70;;;;;;5114734;28;20098;-74
2021/10/12 01:01:44;;;;;;;11.43;7.82;;;10.30;81.70;;;;;;5114953;28;20024;-75
2021/10/12 01:04:10;;;;;;;12.60;7.65;;;10.30;81.60;;;;;;5115018;28;20038;-76
2021/10/12 01:06:36;;;;;;;11.77;7.85;;;10.20;82.30;;;;;;5113732;28;20023;-74
2021/10/12 01:09:03;;;;;;;19.02;8.57;;;10.30;81.60;;;;;;5114819;27;20412;-75
2021/10/12 01:11:29;;;;;;;13.90;7.75;;;10.30;81.80;;;;;;5114745;27;20111;-74
2021/10/12 01:13:54;;;;;;;12.48;6.80;;;10.20;81.50;;;;;;5114868;28;20104;-73
2021/10/12 01:16:21;;;;;;;14.02;7.95;;;10.20;81.30;;;;;;5114655;28;20475;-74
2021/10/12 01:19:04;;;;;;;13.85;8.05;;;10.10;81.40;;;;;;5114582;28;20030;-74
2021/10/12 01:21:38;;;;;;;14.18;8.68;;;10.00;82.30;;;;;;5114581;28;20019;-74
2021/10/12 01:24:04;;;;;;;16.48;8.52;;;10.00;81.70;;;;;;5114483;28;20015;-75
2021/10/12 01:26:30;;;;;;;14.07;8.40;;;9.90;82.20;;;;;;5113168;28;20019;-74
2021/10/12 01:28:55;;;;;;;12.55;8.27;;;9.90;82.30;;;;;;5114586;28;20476;-77
2021/10/12 01:31:25;;;;;;;16.13;8.23;;;9.90;82.40;;;;;;5114258;28;20047;-74
2021/10/12 01:33:52;;;;;;;13.88;7.90;;;9.90;82.40;;;;;;5114218;27;20103;-74
2021/10/12 01:36:17;;;;;;;14.77;8.40;;;9.90;82.50;;;;;;5114337;28;20052;-74
2021/10/12 01:38:43;;;;;;;13.50;8.50;;;9.90;82.30;;;;;;5114191;28;20055;-74
2021/10/12 01:41:09;;;;;;;14.60;8.27;;;10.00;82.20;;;;;;5113613;28;20062;-74
2021/10/12 01:43:34;;;;;;;15.05;7.80;;;10.00;82.00;;;;;;5114168;28;20532;-74
2021/10/12 01:46:04;;;;;;;15.23;8.07;;;10.00;81.90;;;;;;5113970;28;20371;-74
2021/10/12 01:48:29;;;;;;;13.77;8.07;;;10.00;82.20;;;;;;5114005;28;20024;-74
2021/10/12 01:50:55;;;;;;;12.68;7.60;;;10.10;82.20;;;;;;5113839;28;20096;-74
2021/10/12 01:53:21;;;;;;;14.88;7.72;;;10.10;82.00;;;;;;5114025;28;20434;-74
2021/10/12 01:55:47;;;;;;;12.02;7.63;;;10.10;81.90;;;;;;5113859;28;20061;-74
2021/10/12 01:58:14;;;;;;;14.82;8.82;;;10.10;81.70;;;;;;5113796;28;20095;-74
2021/10/12 02:00:40;;;;;;;15.52;9.07;;;10.00;81.40;;;;;;5113836;28;20031;-74
2021/10/12 02:03:05;;;;;;;11.60;8.05;;;10.00;82.00;;;;;;5120168;28;20020;-75
2021/10/12 02:05:31;;;;;;;17.08;10.05;;;10.00;82.30;;;;;;5133495;28;20035;-74
2021/10/12 02:07:56;;;;;;;13.43;8.68;;;9.90;83.30;;;;;;5120269;28;20399;-75
2021/10/12 02:10:22;;;;;;;15.43;8.65;;;9.80;83.50;;;;;;5113719;28;20035;-74
2021/10/12 02:12:47;;;;;;;12.00;8.32;;;9.90;83.40;;;;;;5113686;28;20099;-74
2021/10/12 02:15:13;;;;;;;17.17;9.15;;;9.90;83.30;;;;;;5112176;28;20467;-74
2021/10/12 02:17:39;;;;;;;12.13;8.00;;;9.90;83.00;;;;;;5113603;28;20027;-74
2021/10/12 02:20:07;;;;;;;13.93;7.43;;;9.90;82.70;;;;;;5113484;28;20425;-74
2021/10/12 02:22:33;;;;;;;12.15;7.15;;;9.90;82.60;;;;;;5113600;28;20361;-74
2021/10/12 02:24:59;;;;;;;14.93;7.97;;;9.90;82.90;;;;;;5113483;28;20023;-74
2021/10/12 02:27:24;;;;;;;15.35;8.48;;;9.90;83.10;;;;;;5113528;27;20024;-73
2021/10/12 02:29:50;;;;;;;16.65;7.63;;;9.80;83.10;;;;;;5113100;28;20050;-74
2021/10/12 02:32:16;;;;;;;13.00;7.85;;;9.80;83.30;;;;;;5113532;28;20110;-73
2021/10/12 02:34:42;;;;;;;13.07;7.50;;;9.80;83.60;;;;;;5113456;27;20099;-74
2021/10/12 02:37:08;;;;;;;15.18;7.43;;;9.80;83.60;;;;;;5113438;28;20051;-74
2021/10/12 02:39:33;;;;;;;12.02;7.47;;;9.90;83.60;;;;;;5113546;28;20038;-74
2021/10/12 02:41:59;;;;;;;16.65;9.60;;;9.80;83.20;;;;;;5113375;27;20019;-74
2021/10/12 02:44:25;;;;;;;19.17;8.27;;;9.80;83.30;;;;;;5113389;28;20110;-74
2021/10/12 02:46:51;;;;;;;14.38;9.02;;;9.70;83.50;;;;;;5113211;28;20482;-74
2021/10/12 02:49:16;;;;;;;17.42;8.95;;;9.70;83.50;;;;;;5113326;28;20019;-74
2021/10/12 02:51:42;;;;;;;14.68;8.77;;;9.70;83.50;;;;;;5114013;28;20054;-74
2021/10/12 02:54:07;;;;;;;14.38;8.10;;;9.80;83.60;;;;;;5117409;28;20023;-74
2021/10/12 02:56:33;;;;;;;14.10;8.57;;;9.80;83.70;;;;;;5117378;28;20032;-74
2021/10/12 02:58:58;;;;;;;11.63;7.43;;;9.80;83.60;;;;;;5117262;28;20107;-74
2021/10/12 03:01:24;;;;;;;13.82;8.38;;;9.80;83.70;;;;;;5117464;28;20540;-73
2021/10/12 03:03:50;;;;;;;10.77;6.75;;;9.90;83.80;;;;;;5117267;28;20028;-74
2021/10/12 03:06:15;;;;;;;13.85;7.78;;;9.90;83.80;;;;;;5117259;28;20468;-74
2021/10/12 03:08:41;;;;;;;12.27;7.68;;;9.90;83.60;;;;;;5117136;28;20027;-74
2021/10/12 03:11:06;;;;;;;12.57;7.90;;;10.00;84.20;;;;;;5116952;28;20038;-74
2021/10/12 03:13:32;;;;;;;12.80;8.32;;;9.90;83.30;;;;;;5115756;28;20104;-74
2021/10/12 03:15:58;;;;;;;11.43;7.30;;;9.80;83.30;;;;;;5117008;28;20574;-74
2021/10/12 03:18:23;;;;;;;11.60;8.10;;;9.90;83.50;;;;;;5117063;28;20019;-74
2021/10/12 03:20:49;;;;;;;13.45;8.55;;;9.80;83.50;;;;;;5116867;28;20028;-74
2021/10/12 03:23:15;;;;;;;14.57;8.32;;;9.80;83.40;;;;;;5116772;28;20020;-74
2021/10/12 03:25:40;;;;;;;11.88;8.02;;;9.80;83.50;;;;;;5116775;28;20027;-74
2021/10/12 03:28:06;;;;;;;11.52;7.75;;;9.80;83.40;;;;;;5116703;28;20420;-74
2021/10/12 03:30:32;;;;;;;13.50;7.88;;;9.80;83.40;;;;;;5116431;27;20568;-73
2021/10/12 03:32:58;;;;;;;14.05;7.85;;;9.70;83.20;;;;;;5116600;28;20028;-74
2021/10/12 03:35:32;;;;;;;16.42;8.73;;;9.70;83.30;;;;;;5116559;28;20016;-73
2021/10/12 03:37:58;;;;;;;14.30;8.52;;;9.70;83.40;;;;;;5116605;28;20035;-73
2021/10/12 03:40:23;;;;;;;13.55;8.68;;;9.70;83.60;;;;;;5116404;28;20023;-73
2021/10/12 03:42:49;;;;;;;14.38;8.90;;;9.60;83.70;;;;;;5116300;28;20076;-73
2021/10/12 03:45:14;;;;;;;12.82;9.30;;;9.60;83.70;;;;;;5116266;28;20089;-73
2021/10/12 03:47:40;;;;;;;13.15;8.93;;;9.60;83.70;;;;;;5116231;28;20041;-74
2021/10/12 03:50:06;;;;;;;13.20;8.27;;;9.60;83.70;;;;;;5116141;28;20100;-73
2021/10/12 03:52:32;;;;;;;14.50;8.75;;;9.60;83.60;;;;;;5116358;28;20028;-73
2021/10/12 03:54:57;;;;;;;13.93;8.98;;;9.60;83.60;;;;;;5116339;27;20051;-73
2021/10/12 03:57:23;;;;;;;14.93;8.73;;;9.60;83.80;;;;;;5116374;28;20480;-73
2021/10/12 03:59:48;;;;;;;14.73;9.38;;;9.50;83.70;;;;;;5114786;28;20081;-73
2021/10/12 04:02:14;;;;;;;14.85;8.85;;;9.50;83.50;;;;;;5115674;28;20036;-73
2021/10/12 04:04:40;;;;;;;15.48;9.32;;;9.50;83.90;;;;;;5114799;28;20023;-74
2021/10/12 04:07:05;;;;;;;17.20;9.57;;;9.50;83.80;;;;;;5116119;28;20020;-74
2021/10/12 04:09:31;;;;;;;18.95;9.55;;;9.40;83.70;;;;;;5115961;28;20016;-74
2021/10/12 04:11:57;;;;;;;19.52;10.50;;;9.40;83.70;;;;;;5115888;28;20043;-74
2021/10/12 04:14:23;;;;;;;17.55;9.50;;;9.40;83.70;;;;;;5115879;28;20066;-74
2021/10/12 04:16:49;;;;;;;16.13;10.60;;;9.40;83.70;;;;;;5114527;28;20035;-74
2021/10/12 04:19:14;;;;;;;20.63;10.13;;;9.40;83.80;;;;;;5115739;27;20364;-74
2021/10/12 04:21:40;;;;;;;17.38;9.82;;;9.40;83.90;;;;;;5115988;27;20112;-74
2021/10/12 04:24:06;;;;;;;15.07;9.65;;;9.40;83.80;;;;;;5115488;27;20034;-74
2021/10/12 04:26:31;;;;;;;15.18;9.52;;;9.40;84.20;;;;;;5115591;28;20479;-74
2021/10/12 04:28:57;;;;;;;19.05;10.73;;;9.40;83.60;;;;;;5115455;28;20028;-74
2021/10/12 04:31:23;;;;;;;16.45;10.18;;;9.40;83.40;;;;;;5115434;27;20048;-74
2021/10/12 04:33:49;;;;;;;19.65;10.55;;;9.30;83.30;;;;;;5115595;27;20065;-74
2021/10/12 04:36:14;;;;;;;17.98;9.98;;;9.20;83.10;;;;;;5115820;27;20016;-74
2021/10/12 04:38:40;;;;;;;16.17;10.13;;;9.30;83.30;;;;;;5115555;28;20023;-74
2021/10/12 04:41:07;;;;;;;18.15;10.10;;;9.20;83.20;;;;;;5115275;28;20024;-74
2021/10/12 04:43:33;;;;;;;22.33;13.55;;;9.20;83.10;;;;;;5115202;28;20015;-74
2021/10/12 04:45:59;;;;;;;17.98;11.23;;;9.10;83.30;;;;;;5115157;28;20035;-73
2021/10/12 04:48:24;;;;;;;17.30;11.27;;;9.10;83.40;;;;;;5114962;28;20024;-74
2021/10/12 04:50:50;;;;;;;17.23;11.20;;;9.10;83.60;;;;;;5115171;28;20529;-74
2021/10/12 04:53:16;;;;;;;17.45;10.57;;;9.10;83.60;;;;;;5115146;27;20055;-74
2021/10/12 04:55:43;;;;;;;17.23;10.52;;;9.10;83.50;;;;;;5115836;28;20046;-74
2021/10/12 04:58:09;;;;;;;16.05;9.73;;;9.10;83.40;;;;;;5115382;28;20511;-74
2021/10/12 05:00:36;;;;;;;17.83;10.40;;;9.10;83.30;;;;;;5115715;28;20027;-73
2021/10/12 05:03:02;;;;;;;15.07;10.05;;;9.10;83.30;;;;;;5114973;27;20034;-74
2021/10/12 05:05:27;;;;;;;15.20;9.82;;;9.10;83.30;;;;;;5120628;28;20020;-74
2021/10/12 05:07:53;;;;;;;19.80;11.45;;;9.10;83.50;;;;;;5115275;28;20024;-73
2021/10/12 05:10:19;;;;;;;23.40;13.25;;;9.10;83.40;;;;;;5114887;28;20522;-73
2021/10/12 05:12:45;;;;;;;22.73;16.17;;;9.00;83.50;;;;;;5114706;28;20059;-74
2021/10/12 05:15:10;;;;;;;28.05;16.83;;;9.00;83.50;;;;;;5113869;27;20024;-73
2021/10/12 05:17:38;;;;;;;30.65;19.85;;;8.90;83.60;;;;;;5114687;27;20103;-73
2021/10/12 05:20:05;;;;;;;28.10;18.38;;;9.00;83.70;;;;;;5114335;28;20449;-74
2021/10/12 05:22:31;;;;;;;28.10;17.80;;;8.90;83.70;;;;;;5114055;28;20514;-74
2021/10/12 05:24:57;;;;;;;22.08;14.77;;;9.00;83.70;;;;;;5113893;27;20064;-73
2021/10/12 05:27:23;;;;;;;23.13;13.05;;;9.00;83.70;;;;;;5114243;27;20073;-75
2021/10/12 05:29:49;;;;;;;20.50;11.98;;;8.90;83.70;;;;;;5113734;28;20386;-75
2021/10/12 05:32:15;;;;;;;17.05;11.07;;;8.90;83.80;;;;;;5113840;28;20153;-75
2021/10/12 05:34:40;;;;;;;18.70;11.80;;;8.90;83.90;;;;;;5114033;27;20357;-73
2021/10/12 05:37:06;;;;;;;21.08;12.55;;;9.00;84.00;;;;;;5114117;27;20031;-73
2021/10/12 05:39:32;;;;;;;26.85;13.68;;;9.00;83.80;;;;;;5114058;28;20114;-73
2021/10/12 05:41:58;;;;;;;21.88;13.27;;;9.00;83.70;;;;;;5114034;28;20102;-73
2021/10/12 05:44:23;;;;;;;25.27;14.63;;;9.00;83.80;;;;;;5113997;28;20103;-73
2021/10/12 05:46:49;;;;;;;21.60;14.73;;;9.00;83.80;;;;;;5113632;27;20071;-73
2021/10/12 05:49:15;;;;;;;21.92;14.10;;;9.00;83.80;;;;;;5113871;28;20478;-73
2021/10/12 05:51:44;;;;;;;24.50;15.02;;;9.10;83.80;;;;;;5113701;27;20039;-75
2021/10/12 05:54:10;;;;;;;24.20;14.13;;;9.10;83.70;;;;;;5113705;27;20019;-74
2021/10/12 05:56:56;;;;;;;28.38;14.32;;;9.10;83.60;;;;;;5113800;28;20015;-73
2021/10/12 05:59:22;;;;;;;21.70;13.43;;;9.10;83.70;;;;;;5113799;27;20016;-74
2021/10/12 06:01:47;;;;;;;26.33;15.07;;;9.20;83.40;;;;;;5113518;27;20042;-74
2021/10/12 06:04:13;;;;;;;21.98;12.63;;;9.20;83.40;;;;;;5113534;28;20027;-73
2021/10/12 06:06:38;;;;;;;20.85;13.65;;;9.30;83.70;;;;;;5113479;28;20028;-74
2021/10/12 06:09:05;;;;;;;23.98;13.50;;;9.30;83.40;;;;;;5113417;27;20099;-74
2021/10/12 06:11:31;;;;;;;23.95;14.77;;;9.30;82.90;;;;;;5113418;28;20084;-73
2021/10/12 06:13:56;;;;;;;22.08;13.13;;;9.30;83.00;;;;;;5113435;27;20032;-73
2021/10/12 06:16:22;;;;;;;23.17;13.23;;;9.30;83.20;;;;;;5113617;28;20029;-74
2021/10/12 06:18:48;;;;;;;21.25;12.93;;;9.20;83.10;;;;;;5113329;28;20096;-73
2021/10/12 06:21:14;;;;;;;21.80;12.98;;;9.20;83.40;;;;;;5113150;27;20112;-74
2021/10/12 06:23:40;;;;;;;22.88;14.07;;;9.20;83.90;;;;;;5113206;28;20019;-73
2021/10/12 06:26:06;;;;;;;22.45;12.50;;;9.20;83.80;;;;;;5112641;28;20076;-74
2021/10/12 06:28:32;;;;;;;21.25;12.63;;;9.20;84.00;;;;;;5113333;28;20092;-74
2021/10/12 06:30:58;;;;;;;18.88;12.32;;;9.20;84.20;;;;;;5113001;28;20146;-75
2021/10/12 06:33:24;;;;;;;19.85;13.02;;;9.30;84.40;;;;;;5112049;28;20024;-74
2021/10/12 06:35:49;;;;;;;24.67;14.00;;;9.30;84.20;;;;;;5113134;27;20160;-74
2021/10/12 06:38:15;;;;;;;21.25;13.20;;;9.40;84.00;;;;;;5113190;27;20065;-76
2021/10/12 06:40:41;;;;;;;24.02;13.30;;;9.40;83.90;;;;;;5113158;27;20132;-73
2021/10/12 06:43:07;;;;;;;16.83;12.65;;;9.40;83.70;;;;;;5113153;27;20103;-74
2021/10/12 06:45:32;;;;;;;23.05;13.45;;;9.40;83.70;;;;;;5113318;28;20024;-74
2021/10/12 06:47:58;;;;;;;19.98;13.20;;;9.40;83.80;;;;;;5113108;27;20030;-75
2021/10/12 06:50:24;;;;;;;22.88;13.65;;;9.50;83.90;;;;;;5112975;28;20059;-74
2021/10/12 06:52:50;;;;;;;22.50;13.60;;;9.50;83.80;;;;;;5113066;27;20073;-76
2021/10/12 06:55:17;;;;;;;22.55;12.90;;;9.50;83.80;;;;;;5112714;28;20031;-74
2021/10/12 06:57:43;;;;;;;20.77;13.80;;;9.50;84.00;;;;;;5113014;28;20019;-74
2021/10/12 07:00:12;;;;;;;20.80;13.48;;;9.60;84.10;;;;;;5112667;28;20384;-75
2021/10/12 07:02:37;;;;;;;20.80;13.57;;;9.60;84.60;;;;;;5113009;27;20055;-74
2021/10/12 07:05:04;;;;;;;21.15;12.68;;;9.70;83.80;;;;;;5112806;27;20062;-75
2021/10/12 07:07:31;;;;;;;19.83;13.15;;;9.70;83.70;;;;;;5112737;27;20068;-74
2021/10/12 07:09:57;;;;;;;24.33;14.23;;;9.70;83.80;;;;;;5112659;28;20224;-74
2021/10/12 07:12:23;;;;;;;19.08;12.57;;;9.70;83.90;;;;;;5112756;27;20078;-74
2021/10/12 07:14:48;;;;;;;20.58;13.35;;;9.70;83.90;;;;;;5111527;28;20020;-74
2021/10/12 07:17:14;;;;;;;20.13;14.25;;;9.70;83.90;;;;;;5112615;27;20049;-73
2021/10/12 07:19:39;;;;;;;20.85;13.15;;;9.70;83.80;;;;;;5112754;27;20122;-73
2021/10/12 07:22:05;;;;;;;22.17;13.30;;;9.70;83.80;;;;;;5112650;27;20095;-73
2021/10/12 07:24:30;;;;;;;20.38;13.30;;;9.80;84.10;;;;;;5112379;27;20027;-73
2021/10/12 07:26:56;;;;;;;30.45;16.70;;;9.80;84.00;;;;;;5112399;27;20078;-77
2021/10/12 07:29:22;;;;;;;28.23;16.80;;;9.90;84.10;;;;;;5117173;27;20020;-74
2021/10/12 07:31:48;;;;;;;32.65;18.77;;;9.90;83.70;;;;;;5132575;27;20050;-74
2021/10/12 07:34:14;;;;;;;27.95;17.08;;;9.90;83.40;;;;;;5122221;28;20028;-74
2021/10/12 07:36:39;;;;;;;25.60;16.10;;;9.90;83.40;;;;;;5112716;27;20028;-74
2021/10/12 07:39:07;;;;;;;32.17;18.52;;;9.80;83.50;;;;;;5115495;28;20106;-73
2021/10/12 07:41:33;;;;;;;28.70;17.67;;;9.70;83.60;;;;;;5115719;27;20049;-76
2021/10/12 07:43:58;;;;;;;29.55;16.75;;;9.60;83.70;;;;;;5116026;28;20079;-74
2021/10/12 07:46:24;;;;;;;30.02;16.67;;;9.60;84.10;;;;;;5115700;27;20103;-74
2021/10/12 07:48:54;;;;;;;28.63;16.08;;;9.60;84.30;;;;;;5116220;28;20376;-76
2021/10/12 07:51:20;;;;;;;22.17;14.30;;;9.60;84.40;;;;;;5115805;28;20119;-74
2021/10/12 07:53:47;;;;;;;21.83;14.45;;;9.60;84.30;;;;;;5116300;28;20118;-74
2021/10/12 07:56:18;;;;;;;24.98;12.30;;;9.70;84.30;;;;;;5116146;28;20383;-75
2021/10/12 07:58:44;;;;;;;36.92;16.08;;;9.80;85.90;;;;;;5116011;28;20046;-78
2021/10/12 08:01:10;;;;;;;26.55;14.82;;;10.10;90.20;;;;;;5116156;27;20512;-79
2021/10/12 08:03:35;;;;;;;25.98;15.00;;;10.20;86.60;;;;;;5116655;27;20047;-78
2021/10/12 08:06:01;;;;;;;27.67;15.52;;;10.50;86.60;;;;;;5119470;28;20027;-78
2021/10/12 08:08:26;;;;;;;28.83;15.32;;;10.60;84.40;;;;;;5121067;28;20020;-79
2021/10/12 08:10:53;;;;;;;25.52;14.73;;;10.70;84.60;;;;;;5120855;28;20034;-78
2021/10/12 08:13:21;;;;;;;27.20;15.43;;;10.90;82.90;;;;;;5123352;28;20414;-79
2021/10/12 08:15:51;;;;;;;33.10;17.50;;;11.00;81.20;;;;;;5117085;28;20512;-79
2021/10/12 08:18:18;;;;;;;28.48;15.20;;;11.20;80.60;;;;;;5126098;27;20083;-79
2021/10/12 08:20:44;;;;;;;24.98;13.48;;;11.30;79.80;;;;;;5139260;28;20023;-78
2021/10/12 08:23:10;;;;;;;20.95;12.18;;;11.30;79.40;;;;;;5139486;27;20022;-78
2021/10/12 08:25:35;;;;;;;26.20;14.85;;;11.30;79.80;;;;;;5139319;28;20024;-78
2021/10/12 08:28:01;;;;;;;23.50;13.90;;;11.40;79.40;;;;;;5135615;27;20027;-76
2021/10/12 08:30:26;;;;;;;24.45;13.38;;;11.40;79.30;;;;;;5134914;27;20043;-75
2021/10/12 08:32:52;;;;;;;21.00;13.18;;;11.30;78.70;;;;;;5131793;27;20028;-75
2021/10/12 08:35:18;;;;;;;26.60;14.80;;;11.00;77.50;;;;;;5118674;27;20076;-75
2021/10/12 08:37:43;;;;;;;25.60;12.93;;;10.70;78.80;;;;;;5115367;27;20494;-75
2021/10/12 08:40:14;;;;;;;20.48;13.18;;;10.40;79.40;;;;;;5114030;28;20046;-77
2021/10/12 08:42:46;;;;;;;22.58;12.60;;;10.30;80.70;;;;;;5115139;28;20024;-77
2021/10/12 08:45:12;;;;;;;24.83;14.05;;;10.20;81.00;;;;;;5115149;27;20485;-76
2021/10/12 08:47:38;;;;;;;20.33;12.95;;;10.20;81.80;;;;;;5114908;28;20024;-76
2021/10/12 08:50:07;;;;;;;22.45;12.90;;;10.20;82.10;;;;;;5119772;28;20028;-76
2021/10/12 08:52:32;;;;;;;24.67;12.88;;;10.20;82.60;;;;;;5114929;28;20145;-76
2021/10/12 08:54:59;;;;;;;20.45;11.82;;;10.30;83.10;;;;;;5114965;28;20031;-75
2021/10/12 08:57:38;;;;;;;25.45;13.73;;;10.40;83.20;;;;;;5114727;27;20044;-77
2021/10/12 09:00:12;;;;;;;26.80;14.02;;;10.50;83.30;;;;;;5114934;27;20055;-76
2021/10/12 09:05:50;;;;;;;;;;;10.60;82.30;;;;;;5115295;28;20034;-75
2021/10/12 09:08:21;;;;;;;21.95;12.20;;;10.60;80.40;;;;;;5114783;27;19903;-76
2021/10/12 09:10:47;;;;;;;20.70;12.00;;;10.60;80.00;;;;;;5114510;28;20023;-76
2021/10/12 09:13:12;;;;;;;18.17;10.55;;;10.50;79.20;;;;;;5114215;27;20024;-75
2021/10/12 09:15:38;;;;;;;19.92;11.32;;;10.40;78.50;;;;;;5114409;28;20074;-76
2021/10/12 09:18:03;;;;;;;17.27;8.77;;;10.50;79.60;;;;;;5114363;27;20016;-76
2021/10/12 09:20:30;;;;;;;13.70;9.05;;;10.50;79.30;;;;;;5114128;28;20149;-75
2021/10/12 09:23:12;;;;;;;12.10;7.97;;;10.40;77.00;;;;;;5114226;28;20120;-74
2021/10/12 09:25:41;;;;;;;11.25;6.95;;;10.50;77.50;;;;;;5114474;28;20034;-75
2021/10/12 09:28:08;;;;;;;11.77;7.25;;;10.60;77.10;;;;;;5115379;27;20020;-78
2021/10/12 09:30:36;;;;;;;12.68;7.43;;;10.80;77.10;;;;;;5114542;28;20047;-76
2021/10/12 09:33:07;;;;;;;12.70;8.63;;;10.90;77.00;;;;;;5114146;27;20092;-76
2021/10/12 09:35:34;;;;;;;12.10;8.50;;;11.00;77.40;;;;;;5114072;27;20028;-76
2021/10/12 09:38:11;;;;;;;11.63;6.50;;;11.10;75.80;;;;;;5112950;28;20022;-76
2021/10/12 09:40:42;;;;;;;8.02;5.07;;;11.10;74.40;;;;;;5114122;28;20527;-76
2021/10/12 09:43:09;;;;;;;9.50;5.05;;;11.20;73.50;;;;;;5114128;27;20386;-76
2021/10/12 09:45:42;;;;;;;8.07;3.95;;;11.30;72.20;;;;;;5113842;27;20020;-76
2021/10/12 09:48:33;;;;;;;7.82;4.50;;;11.30;72.50;;;;;;5113859;28;20539;-75
2021/10/12 09:51:10;;;;;;;10.52;5.70;;;11.30;72.70;;;;;;5113411;28;20096;-75
2021/10/12 09:53:36;;;;;;;9.77;5.70;;;11.20;74.00;;;;;;5113867;28;20379;-76
2021/10/12 09:56:02;;;;;;;9.77;6.00;;;11.20;74.50;;;;;;5113658;28;20034;-76
2021/10/12 09:58:32;;;;;;;12.23;5.80;;;11.10;73.20;;;;;;5113443;28;20433;-77
2021/10/12 10:01:00;;;;;;;7.68;4.93;;;11.20;74.40;;;;;;5112847;28;20030;-76
2021/10/12 10:03:28;;;;;;;9.98;6.25;;;11.20;73.60;;;;;;5113049;28;20471;-76
2021/10/12 10:06:01;;;;;;;9.07;5.00;;;11.20;71.20;;;;;;5113069;28;20456;-76
2021/10/12 10:08:31;;;;;;;8.07;3.95;;;11.20;71.50;;;;;;5114508;28;20088;-74
2021/10/12 10:10:57;;;;;;;6.97;3.90;;;11.20;70.60;;;;;;5112940;28;20136;-75
2021/10/12 10:13:27;;;;;;;4.60;2.08;;;11.10;71.50;;;;;;5113437;28;20027;-77
2021/10/12 10:15:54;;;;;;;3.20;1.67;;;11.00;69.90;;;;;;5113221;28;20041;-74
2021/10/12 10:18:21;;;;;;;4.85;2.60;;;10.70;70.70;;;;;;5113163;28;20035;-75
2021/10/12 10:20:50;;;;;;;5.18;2.55;;;10.70;71.70;;;;;;5113097;28;20024;-75
2021/10/12 10:24:18;;;;;;;5.38;2.75;;;10.60;72.00;;;;;;5113082;28;20089;-75
2021/10/12 10:26:44;;;;;;;6.00;2.28;;;10.40;73.30;;;;;;5113155;28;20484;-75
2021/10/12 10:29:27;;;;;;;3.92;2.85;;;10.30;74.10;;;;;;5112949;28;20240;-75
2021/10/12 10:32:00;;;;;;;7.68;3.40;;;10.20;74.40;;;;;;5113090;28;20381;-74
2021/10/12 10:34:28;;;;;;;7.05;4.35;;;10.20;76.50;;;;;;5113264;27;20480;-75
2021/10/12 10:37:33;;;;;;;5.35;3.45;;;10.30;75.50;;;;;;5113047;27;20052;-75
2021/10/12 10:40:08;;;;;;;8.00;4.30;;;10.30;74.40;;;;;;5070040;28;20078;-74
2021/10/12 10:42:33;;;;;;;10.45;5.22;;;10.30;75.60;;;;;;5108405;28;20046;-75
2021/10/12 10:45:00;;;;;;;10.05;5.22;;;10.30;76.00;;;;;;5112780;28;20099;-75
2021/10/12 10:47:41;;;;;;;8.02;5.03;;;10.30;76.90;;;;;;5112588;28;20027;-75
2021/10/12 10:50:17;;;;;;;11.70;6.22;;;10.20;76.50;;;;;;5112140;28;20099;-76
2021/10/12 10:52:48;;;;;;;10.90;5.75;;;10.20;77.80;;;;;;5112211;28;20027;-76
2021/10/12 10:55:20;;;;;;;12.48;7.40;;;10.00;78.00;;;;;;5112336;27;20027;-77
2021/10/12 10:58:02;;;;;;;10.73;6.20;;;9.80;79.30;;;;;;5112422;28;20024;-76
2021/10/12 11:00:28;;;;;;;12.20;6.10;;;9.90;79.60;;;;;;5112809;28;20418;-77
2021/10/12 11:02:55;;;;;;;13.57;6.75;;;9.80;80.00;;;;;;5112329;28;20020;-76
2021/10/12 11:05:45;;;;;;;14.10;7.25;;;9.70;80.90;;;;;;5112179;28;20031;-75
2021/10/12 11:08:12;;;;;;;13.35;7.60;;;9.60;81.50;;;;;;5112258;28;20521;-74
2021/10/12 11:10:39;;;;;;;12.48;6.90;;;9.60;82.00;;;;;;5112204;28;20051;-77
2021/10/12 11:13:05;;;;;;;13.85;7.07;;;9.60;81.90;;;;;;5114178;28;20028;-76
2021/10/12 11:15:30;;;;;;;13.77;6.82;;;9.70;80.80;;;;;;5116575;28;20020;-76
2021/10/12 11:18:06;;;;;;;10.30;6.50;;;9.60;81.40;;;;;;5118780;28;20023;-75
2021/10/12 11:20:43;;;;;;;13.32;6.63;;;9.60;81.20;;;;;;5140488;28;20024;-76
2021/10/12 11:23:11;;;;;;;15.25;7.72;;;9.60;82.00;;;;;;5120983;27;20472;-76
2021/10/12 11:25:38;;;;;;;13.82;8.10;;;9.60;81.50;;;;;;5116756;28;20024;-74
2021/10/12 11:28:08;;;;;;;15.48;7.90;;;9.60;82.70;;;;;;5115878;28;20024;-76
2021/10/12 11:30:35;;;;;;;14.70;7.93;;;9.60;82.70;;;;;;5115688;28;20058;-77
2021/10/12 11:33:01;;;;;;;12.77;7.65;;;9.50;83.20;;;;;;5114364;28;20073;-76
2021/10/12 11:35:35;;;;;;;11.13;7.22;;;9.60;82.80;;;;;;5115900;28;20023;-77
2021/10/12 11:38:02;;;;;;;13.95;7.95;;;9.60;83.60;;;;;;5115753;28;20020;-75
2021/10/12 11:40:28;;;;;;;13.02;8.05;;;9.50;84.40;;;;;;5115544;28;20020;-76
2021/10/12 11:42:56;;;;;;;14.27;8.30;;;9.50;85.60;;;;;;5115297;27;20065;-75
2021/10/12 11:45:22;;;;;;;13.60;8.52;;;9.50;84.90;;;;;;5115702;28;20020;-76
2021/10/12 11:47:48;;;;;;;13.32;7.95;;;9.60;85.70;;;;;;5116026;28;20478;-77
2021/10/12 11:50:15;;;;;;;17.00;8.70;;;9.60;84.80;;;;;;5115465;27;20028;-77
2021/10/12 11:52:45;;;;;;;13.15;8.35;;;9.60;84.70;;;;;;5116421;28;20028;-78
2021/10/12 11:55:13;;;;;;;13.02;7.50;;;9.60;85.00;;;;;;5116073;28;20016;-77
2021/10/12 11:57:45;;;;;;;14.05;7.45;;;9.70;84.50;;;;;;5115543;28;20028;-74
2021/10/12 12:00:12;;;;;;;12.85;7.25;;;9.70;85.00;;;;;;5115875;28;20016;-75
2021/10/12 12:02:38;;;;;;;14.10;6.80;;;9.80;85.80;;;;;;5115590;28;20027;-76
2021/10/12 12:05:04;;;;;;;11.45;7.00;;;9.70;85.10;;;;;;5115663;28;20038;-76
2021/10/12 12:07:34;;;;;;;14.20;6.80;;;9.60;84.60;;;;;;5116120;27;20047;-78
2021/10/12 12:10:00;;;;;;;11.90;6.50;;;9.70;84.10;;;;;;5115541;28;20035;-78
2021/10/12 12:12:26;;;;;;;12.13;7.13;;;9.70;84.80;;;;;;5115979;28;20471;-77
2021/10/12 12:14:53;;;;;;;12.05;8.00;;;9.60;84.20;;;;;;5115540;27;20028;-80
2021/10/12 12:17:24;;;;;;;13.23;8.18;;;9.70;84.10;;;;;;5115091;28;20035;-77
2021/10/12 12:19:58;;;;;;;11.90;7.15;;;9.80;83.90;;;;;;5115682;27;20030;-79
2021/10/12 12:22:28;;;;;;;14.73;8.45;;;9.80;84.40;;;;;;5115994;28;20019;-78
2021/10/12 12:25:03;;;;;;;14.93;8.23;;;9.70;85.00;;;;;;5115204;28;20012;-77
2021/10/12 12:27:49;;;;;;;13.65;6.43;;;9.70;84.80;;;;;;5115449;28;20020;-78
2021/10/12 12:30:15;;;;;;;;;;;9.80;84.40;;;;;;5115433;28;20039;-77
2021/10/12 12:32:53;;;;;;;;;;;9.80;84.40;;;;;;5115255;28;20379;-77
2021/10/12 12:35:19;;;;;;;18.67;9.73;;;9.70;85.40;;;;;;5115558;28;19904;-78
2021/10/12 12:37:59;;;;;;;17.33;9.77;;;9.80;85.50;;;;;;5115138;27;20023;-78
2021/10/12 12:40:26;;;;;;;19.48;10.88;;;9.80;85.10;;;;;;5115328;28;20020;-77
2021/10/12 12:42:53;;;;;;;17.15;10.43;;;9.70;85.40;;;;;;5114560;28;20019;-77
2021/10/12 12:45:24;;;;;;;17.45;11.25;;;9.70;85.90;;;;;;5115082;28;20020;-77